createdAt,value
2023-03-15T00:02:16.530Z,4.53
2023-03-15T00:10:22.053Z,2.28
2023-03-15T00:18:30.736Z,4.32
2023-03-15T00:26:36.127Z,4.07
2023-03-15T00:34:49.302Z,2.42
2023-03-15T00:42:57.694Z,2.72
2023-03-15T00:51:11.430Z,2.63
2023-03-15T00:59:16.742Z,5.47
2023-03-15T01:07:24.709Z,3.97
2023-03-15T01:15:30.315Z,3.40
2023-03-15T01:23:40.124Z,2.75
2023-03-15T01:31:45.460Z,2.42
2023-03-15T01:39:55.144Z,2.63
2023-03-15T01:48:00.845Z,4.25
2023-03-15T01:56:10.635Z,3.97
2023-03-15T02:04:20.667Z,3.40
2023-03-15T02:12:29.607Z,6.47
2023-03-15T02:20:42.719Z,7.97
2023-03-15T02:28:51.855Z,13.17
2023-03-15T02:36:58.505Z,13.45
2023-03-15T02:45:09.663Z,11.73
2023-03-15T02:53:15.369Z,11.93
2023-03-15T03:01:23.966Z,9.55
2023-03-15T03:09:30.099Z,13.15
2023-03-15T03:17:38.797Z,11.13
2023-03-15T03:25:45.868Z,9.93
2023-03-15T03:33:54.269Z,10.40
2023-03-15T03:41:59.993Z,9.70
2023-03-15T03:50:09.559Z,8.82
2023-03-15T03:58:14.991Z,9.32
2023-03-15T04:06:31.720Z,7.25
2023-03-15T04:14:37.484Z,4.47
2023-03-15T04:22:49.765Z,8.07
2023-03-15T04:31:10.747Z,7.30
2023-03-15T04:39:39.231Z,9.35
2023-03-15T04:48:04.122Z,10.82
2023-03-15T05:04:56.236Z,8.30
2023-03-15T05:13:22.954Z,8.07
2023-03-15T05:21:46.188Z,11.75
2023-03-15T05:30:08.804Z,11.52
2023-03-15T05:38:32.771Z,12.90
2023-03-15T05:47:01.412Z,9.25
2023-03-15T05:55:26.917Z,10.93
2023-03-15T06:03:57.938Z,15.57
2023-03-15T06:12:08.692Z,15.07
2023-03-15T06:20:19.361Z,12.02
2023-03-15T06:28:24.880Z,9.30
2023-03-15T06:36:37.581Z,12.38
2023-03-15T06:44:43.935Z,10.93
2023-03-15T06:52:54.075Z,15.30
2023-03-15T07:00:59.914Z,10.27
2023-03-15T07:09:08.602Z,10.25
2023-03-15T07:17:14.294Z,8.23
2023-03-15T07:25:26.169Z,14.80
2023-03-15T07:33:33.001Z,10.88
2023-03-15T07:41:41.005Z,13.00
2023-03-15T07:49:58.817Z,16.00
2023-03-15T07:58:07.237Z,11.88
2023-03-15T08:06:13.292Z,13.43
2023-03-15T08:14:21.478Z,8.30
2023-03-15T08:22:27.383Z,12.63
2023-03-15T08:30:35.717Z,9.82
2023-03-15T08:38:41.966Z,8.73
2023-03-15T08:46:50.392Z,11.38
2023-03-15T08:54:56.113Z,9.35
2023-03-15T09:03:04.933Z,10.93
2023-03-15T09:11:11.127Z,10.50
2023-03-15T09:19:19.818Z,8.50
2023-03-15T09:27:27.064Z,9.52
2023-03-15T09:35:35.725Z,11.95
2023-03-15T09:44:04.111Z,13.93
2023-03-15T09:52:25.877Z,12.85
2023-03-15T10:00:39.497Z,22.27
2023-03-15T10:08:49.819Z,25.65
2023-03-15T10:16:55.818Z,14.00
2023-03-15T10:25:08.018Z,10.77
2023-03-15T10:33:21.851Z,11.70
2023-03-15T10:41:41.579Z,10.48
2023-03-15T10:49:47.815Z,12.32
2023-03-15T10:58:00.232Z,11.13
2023-03-15T11:06:21.181Z,8.75
2023-03-15T11:14:30.283Z,13.32
2023-03-15T11:22:37.094Z,14.45
2023-03-15T11:30:48.249Z,12.73
2023-03-15T11:38:54.981Z,15.52
2023-03-15T11:47:09.243Z,10.38
2023-03-15T11:55:22.947Z,11.05
2023-03-15T12:03:38.783Z,14.52
2023-03-15T12:11:51.730Z,12.32
2023-03-15T12:20:14.240Z,15.27
2023-03-15T12:28:25.084Z,10.52
2023-03-15T12:36:39.774Z,11.93
2023-03-15T12:44:46.286Z,8.05
2023-03-15T12:52:54.301Z,8.35
2023-03-15T13:01:00.803Z,7.53
2023-03-15T13:09:20.189Z,7.65
2023-03-15T13:17:36.576Z,9.60
2023-03-15T13:25:52.687Z,14.52
2023-03-15T13:34:00.367Z,8.48
2023-03-15T13:50:41.782Z,8.07
2023-03-15T13:58:52.142Z,10.70
2023-03-15T14:07:24.261Z,7.25
2023-03-15T14:15:44.750Z,14.57
2023-03-15T14:23:51.777Z,7.90
2023-03-15T14:32:05.083Z,9.48
2023-03-15T14:56:37.046Z,14.15
2023-03-15T15:04:48.312Z,13.82
2023-03-15T15:13:05.496Z,8.48
2023-03-15T15:21:23.179Z,7.65
2023-03-15T15:29:28.923Z,12.35
2023-03-15T15:37:37.103Z,15.52
2023-03-15T15:45:42.884Z,13.55
2023-03-15T15:53:51.230Z,14.88
2023-03-15T16:02:01.924Z,13.43
2023-03-15T16:10:13.179Z,18.08
2023-03-15T16:18:21.850Z,14.60
2023-03-15T16:26:29.500Z,22.35
2023-03-15T16:34:37.631Z,17.17
2023-03-15T16:42:43.071Z,16.67
2023-03-15T16:50:52.002Z,20.90
2023-03-15T16:58:58.038Z,29.02
2023-03-15T17:07:06.802Z,23.17
2023-03-15T17:15:14.349Z,23.80
2023-03-15T17:23:22.749Z,25.35
2023-03-15T17:31:32.896Z,30.55
2023-03-15T17:39:41.054Z,23.00
2023-03-15T17:47:46.610Z,21.02
2023-03-15T17:55:58.811Z,24.92
2023-03-15T18:04:04.504Z,21.58
2023-03-15T18:12:16.510Z,21.35
2023-03-15T18:20:24.308Z,22.58
2023-03-15T18:28:35.780Z,24.25
2023-03-15T18:36:41.665Z,25.90
2023-03-15T18:44:49.777Z,25.52
2023-03-15T18:52:55.773Z,25.77
2023-03-15T19:01:04.149Z,24.60
2023-03-15T19:09:10.487Z,27.05
2023-03-15T19:17:21.340Z,24.83
2023-03-15T19:25:26.922Z,23.58
2023-03-15T19:33:35.871Z,24.27
2023-03-15T19:41:41.619Z,20.40
2023-03-15T19:49:49.649Z,24.40
2023-03-15T19:57:56.783Z,23.67
2023-03-15T20:06:07.647Z,27.00
2023-03-15T20:14:13.139Z,28.33
2023-03-15T20:22:21.918Z,23.23
2023-03-15T20:30:27.495Z,22.63
2023-03-15T20:38:37.382Z,23.35
2023-03-15T20:46:43.934Z,25.17
2023-03-15T20:54:52.169Z,24.95
2023-03-15T21:02:59.696Z,20.77
2023-03-15T21:11:09.510Z,18.08
2023-03-15T21:19:15.147Z,21.58
2023-03-15T21:27:26.409Z,20.98
2023-03-15T21:35:33.781Z,21.48
2023-03-15T21:43:42.785Z,18.20
2023-03-15T21:51:48.976Z,19.83
2023-03-15T21:59:56.985Z,19.20
2023-03-15T22:08:02.611Z,18.08
2023-03-15T22:16:11.514Z,23.10
2023-03-15T22:24:17.952Z,18.10
2023-03-15T22:32:26.664Z,19.23
2023-03-15T22:40:32.293Z,16.13
2023-03-15T22:48:40.930Z,16.10
2023-03-15T22:56:46.861Z,13.88
2023-03-15T23:04:55.104Z,14.02
2023-03-15T23:13:00.723Z,13.82
2023-03-15T23:21:13.919Z,15.15
2023-03-15T23:29:19.400Z,15.10
2023-03-15T23:37:28.691Z,13.13
2023-03-15T23:45:34.334Z,12.40
2023-03-15T23:53:42.932Z,15.63
